sensor_id;sensor_type;location;lat;lon;timestamp;P1;durP1;ratioP1;P2;durP2;ratioP2
63050;SDS011;49136;47.416;19.402;2022-10-26T00:00:24;11.27;;;6.30;;
63050;SDS011;49136;47.416;19.402;2022-10-26T00:02:52;10.85;;;6.28;;
63050;SDS011;49136;47.416;19.402;2022-10-26T00:05:18;11.10;;;5.32;;
63050;SDS011;49136;47.416;19.402;2022-10-26T00:07:44;14.05;;;6.80;;
63050;SDS011;49136;47.416;19.402;2022-10-26T00:10:09;9.93;;;5.82;;
63050;SDS011;49136;47.416;19.402;2022-10-26T00:12:35;11.38;;;6.40;;
63050;SDS011;49136;47.416;19.402;2022-10-26T00:15:00;9.63;;;5.07;;
63050;SDS011;49136;47.416;19.402;2022-10-26T00:17:26;12.95;;;5.63;;
63050;SDS011;49136;47.416;19.402;2022-10-26T00:19:51;10.30;;;4.97;;
63050;SDS011;49136;47.416;19.402;2022-10-26T00:22:16;10.43;;;5.03;;
63050;SDS011;49136;47.416;19.402;2022-10-26T00:24:42;10.88;;;5.57;;
63050;SDS011;49136;47.416;19.402;2022-10-26T00:27:07;10.30;;;5.32;;
63050;SDS011;49136;47.416;19.402;2022-10-26T00:29:32;8.63;;;4.97;;
63050;SDS011;49136;47.416;19.402;2022-10-26T00:31:58;9.90;;;4.55;;
63050;SDS011;49136;47.416;19.402;2022-10-26T00:34:23;12.27;;;4.85;;
63050;SDS011;49136;47.416;19.402;2022-10-26T00:36:49;9.63;;;4.93;;
63050;SDS011;49136;47.416;19.402;2022-10-26T00:39:14;22.73;;;6.20;;
63050;SDS011;49136;47.416;19.402;2022-10-26T00:41:39;10.85;;;5.35;;
63050;SDS011;49136;47.416;19.402;2022-10-26T00:47:10;9.52;;;5.30;;
63050;SDS011;49136;47.416;19.402;2022-10-26T00:49:43;8.18;;;5.05;;
63050;SDS011;49136;47.416;19.402;2022-10-26T00:52:12;16.13;;;4.32;;
63050;SDS011;49136;47.416;19.402;2022-10-26T00:54:39;14.88;;;5.28;;
63050;SDS011;49136;47.416;19.402;2022-10-26T00:57:05;10.25;;;4.90;;
63050;SDS011;49136;47.416;19.402;2022-10-26T00:59:30;17.88;;;5.15;;
63050;SDS011;49136;47.416;19.402;2022-10-26T01:01:56;4.97;;;3.58;;
63050;SDS011;49136;47.416;19.402;2022-10-26T01:04:22;9.00;;;5.90;;
63050;SDS011;49136;47.416;19.402;2022-10-26T01:06:47;6.72;;;3.58;;
63050;SDS011;49136;47.416;19.402;2022-10-26T01:09:13;6.30;;;4.13;;
63050;SDS011;49136;47.416;19.402;2022-10-26T01:11:40;10.25;;;4.80;;
63050;SDS011;49136;47.416;19.402;2022-10-26T01:14:07;20.35;;;3.78;;
63050;SDS011;49136;47.416;19.402;2022-10-26T01:22:28;11.75;;;4.65;;
63050;SDS011;49136;47.416;19.402;2022-10-26T01:25:09;5.75;;;3.28;;
63050;SDS011;49136;47.416;19.402;2022-10-26T01:27:43;4.05;;;2.80;;
63050;SDS011;49136;47.416;19.402;2022-10-26T01:36:10;7.13;;;3.55;;
63050;SDS011;49136;47.416;19.402;2022-10-26T01:43:54;9.20;;;4.13;;
63050;SDS011;49136;47.416;19.402;2022-10-26T01:46:26;10.48;;;4.13;;
63050;SDS011;49136;47.416;19.402;2022-10-26T01:48:54;5.40;;;3.47;;
63050;SDS011;49136;47.416;19.402;2022-10-26T01:51:25;7.88;;;4.03;;
63050;SDS011;49136;47.416;19.402;2022-10-26T01:53:52;8.05;;;3.88;;
63050;SDS011;49136;47.416;19.402;2022-10-26T01:56:18;8.57;;;3.92;;
63050;SDS011;49136;47.416;19.402;2022-10-26T02:07:20;7.47;;;3.45;;
63050;SDS011;49136;47.416;19.402;2022-10-26T02:12:52;7.97;;;3.80;;
63050;SDS011;49136;47.416;19.402;2022-10-26T02:23:54;4.75;;;2.60;;
63050;SDS011;49136;47.416;19.402;2022-10-26T02:26:23;4.53;;;3.38;;
63050;SDS011;49136;47.416;19.402;2022-10-26T02:28:52;6.60;;;2.67;;
63050;SDS011;49136;47.416;19.402;2022-10-26T02:31:20;6.00;;;3.17;;
63050;SDS011;49136;47.416;19.402;2022-10-26T02:33:47;8.10;;;3.67;;
63050;SDS011;49136;47.416;19.402;2022-10-26T02:36:20;5.07;;;3.25;;
63050;SDS011;49136;47.416;19.402;2022-10-26T02:38:50;6.75;;;3.38;;
63050;SDS011;49136;47.416;19.402;2022-10-26T02:41:17;4.65;;;2.72;;
63050;SDS011;49136;47.416;19.402;2022-10-26T02:44:20;5.93;;;3.03;;
63050;SDS011;49136;47.416;19.402;2022-10-26T02:46:37;5.47;;;3.05;;
63050;SDS011;49136;47.416;19.402;2022-10-26T02:49:03;6.50;;;2.80;;
63050;SDS011;49136;47.416;19.402;2022-10-26T02:51:31;5.45;;;3.55;;
63050;SDS011;49136;47.416;19.402;2022-10-26T02:56:45;4.07;;;2.37;;
63050;SDS011;49136;47.416;19.402;2022-10-26T02:59:15;4.22;;;3.13;;
63050;SDS011;49136;47.416;19.402;2022-10-26T03:01:44;4.97;;;3.10;;
63050;SDS011;49136;47.416;19.402;2022-10-26T03:04:10;5.82;;;2.80;;
63050;SDS011;49136;47.416;19.402;2022-10-26T03:06:35;10.95;;;4.63;;
63050;SDS011;49136;47.416;19.402;2022-10-26T03:09:01;5.07;;;3.83;;
63050;SDS011;49136;47.416;19.402;2022-10-26T03:11:26;8.45;;;3.55;;
63050;SDS011;49136;47.416;19.402;2022-10-26T03:13:52;10.07;;;3.90;;
63050;SDS011;49136;47.416;19.402;2022-10-26T03:16:17;10.23;;;4.07;;
63050;SDS011;49136;47.416;19.402;2022-10-26T03:18:42;6.07;;;4.10;;
63050;SDS011;49136;47.416;19.402;2022-10-26T03:21:08;12.20;;;3.90;;
63050;SDS011;49136;47.416;19.402;2022-10-26T03:23:33;7.72;;;4.78;;
63050;SDS011;49136;47.416;19.402;2022-10-26T03:25:59;6.00;;;3.95;;
63050;SDS011;49136;47.416;19.402;2022-10-26T03:28:24;9.88;;;5.13;;
63050;SDS011;49136;47.416;19.402;2022-10-26T03:30:50;9.13;;;4.35;;
63050;SDS011;49136;47.416;19.402;2022-10-26T03:33:16;11.02;;;5.88;;
63050;SDS011;49136;47.416;19.402;2022-10-26T03:35:41;5.78;;;4.85;;
63050;SDS011;49136;47.416;19.402;2022-10-26T03:38:06;16.90;;;4.00;;
63050;SDS011;49136;47.416;19.402;2022-10-26T03:40:32;10.75;;;5.40;;
63050;SDS011;49136;47.416;19.402;2022-10-26T03:42:59;5.15;;;3.90;;
63050;SDS011;49136;47.416;19.402;2022-10-26T03:45:24;11.77;;;4.38;;
63050;SDS011;49136;47.416;19.402;2022-10-26T03:47:49;9.80;;;4.13;;
63050;SDS011;49136;47.416;19.402;2022-10-26T03:50:16;11.13;;;4.28;;
63050;SDS011;49136;47.416;19.402;2022-10-26T03:52:43;11.30;;;5.18;;
63050;SDS011;49136;47.416;19.402;2022-10-26T03:55:10;6.63;;;4.05;;
63050;SDS011;49136;47.416;19.402;2022-10-26T03:57:42;6.47;;;4.50;;
63050;SDS011;49136;47.416;19.402;2022-10-26T04:00:09;10.77;;;5.75;;
63050;SDS011;49136;47.416;19.402;2022-10-26T04:02:36;6.00;;;3.55;;
63050;SDS011;49136;47.416;19.402;2022-10-26T04:05:02;13.32;;;4.25;;
63050;SDS011;49136;47.416;19.402;2022-10-26T04:07:28;12.45;;;6.10;;
63050;SDS011;49136;47.416;19.402;2022-10-26T04:09:53;12.18;;;5.50;;
63050;SDS011;49136;47.416;19.402;2022-10-26T04:12:18;6.45;;;3.60;;
63050;SDS011;49136;47.416;19.402;2022-10-26T04:14:44;7.07;;;3.92;;
63050;SDS011;49136;47.416;19.402;2022-10-26T04:17:09;9.43;;;4.78;;
63050;SDS011;49136;47.416;19.402;2022-10-26T04:19:34;11.25;;;5.70;;
63050;SDS011;49136;47.416;19.402;2022-10-26T04:22:00;11.60;;;5.82;;
63050;SDS011;49136;47.416;19.402;2022-10-26T04:24:25;9.80;;;4.78;;
63050;SDS011;49136;47.416;19.402;2022-10-26T04:26:51;11.90;;;5.93;;
63050;SDS011;49136;47.416;19.402;2022-10-26T04:29:16;6.20;;;4.70;;
63050;SDS011;49136;47.416;19.402;2022-10-26T04:31:41;8.23;;;5.28;;
63050;SDS011;49136;47.416;19.402;2022-10-26T04:34:07;15.02;;;5.82;;
63050;SDS011;49136;47.416;19.402;2022-10-26T04:36:32;10.25;;;6.07;;
63050;SDS011;49136;47.416;19.402;2022-10-26T04:38:59;19.10;;;8.65;;
63050;SDS011;49136;47.416;19.402;2022-10-26T04:41:24;12.48;;;7.38;;
63050;SDS011;49136;47.416;19.402;2022-10-26T04:43:49;9.52;;;4.82;;
63050;SDS011;49136;47.416;19.402;2022-10-26T04:46:15;14.05;;;6.07;;
63050;SDS011;49136;47.416;19.402;2022-10-26T04:48:40;11.75;;;5.57;;
63050;SDS011;49136;47.416;19.402;2022-10-26T04:51:05;16.48;;;6.53;;
63050;SDS011;49136;47.416;19.402;2022-10-26T04:53:31;10.13;;;5.70;;
63050;SDS011;49136;47.416;19.402;2022-10-26T04:55:58;14.48;;;7.65;;
63050;SDS011;49136;47.416;19.402;2022-10-26T04:58:25;20.67;;;6.10;;
63050;SDS011;49136;47.416;19.402;2022-10-26T05:00:51;14.88;;;6.63;;
63050;SDS011;49136;47.416;19.402;2022-10-26T05:03:16;13.13;;;6.07;;
63050;SDS011;49136;47.416;19.402;2022-10-26T05:05:42;15.65;;;6.30;;
63050;SDS011;49136;47.416;19.402;2022-10-26T05:08:07;9.32;;;5.13;;
63050;SDS011;49136;47.416;19.402;2022-10-26T05:10:33;14.52;;;5.93;;
63050;SDS011;49136;47.416;19.402;2022-10-26T05:12:58;10.50;;;5.57;;
63050;SDS011;49136;47.416;19.402;2022-10-26T05:15:24;22.83;;;11.05;;
63050;SDS011;49136;47.416;19.402;2022-10-26T05:17:54;21.65;;;13.52;;
63050;SDS011;49136;47.416;19.402;2022-10-26T05:20:24;15.15;;;7.63;;
63050;SDS011;49136;47.416;19.402;2022-10-26T05:22:58;13.75;;;8.70;;
63050;SDS011;49136;47.416;19.402;2022-10-26T05:25:26;15.02;;;6.63;;
63050;SDS011;49136;47.416;19.402;2022-10-26T05:27:56;16.50;;;6.95;;
63050;SDS011;49136;47.416;19.402;2022-10-26T05:30:23;17.55;;;9.15;;
63050;SDS011;49136;47.416;19.402;2022-10-26T05:32:58;10.48;;;6.28;;
63050;SDS011;49136;47.416;19.402;2022-10-26T05:35:26;15.38;;;7.82;;
63050;SDS011;49136;47.416;19.402;2022-10-26T05:37:52;15.48;;;7.93;;
63050;SDS011;49136;47.416;19.402;2022-10-26T05:40:18;14.25;;;8.00;;
63050;SDS011;49136;47.416;19.402;2022-10-26T05:42:44;12.65;;;8.27;;
63050;SDS011;49136;47.416;19.402;2022-10-26T05:45:10;13.73;;;7.47;;
63050;SDS011;49136;47.416;19.402;2022-10-26T05:47:39;19.35;;;9.98;;
63050;SDS011;49136;47.416;19.402;2022-10-26T05:50:06;17.88;;;8.38;;
63050;SDS011;49136;47.416;19.402;2022-10-26T05:52:41;15.60;;;8.27;;
63050;SDS011;49136;47.416;19.402;2022-10-26T05:55:08;11.57;;;7.30;;
63050;SDS011;49136;47.416;19.402;2022-10-26T05:57:35;13.40;;;7.93;;
63050;SDS011;49136;47.416;19.402;2022-10-26T06:00:23;11.23;;;7.03;;
63050;SDS011;49136;47.416;19.402;2022-10-26T06:05:52;16.02;;;7.90;;
63050;SDS011;49136;47.416;19.402;2022-10-26T06:08:20;22.52;;;9.23;;
63050;SDS011;49136;47.416;19.402;2022-10-26T06:10:48;14.07;;;8.02;;
63050;SDS011;49136;47.416;19.402;2022-10-26T06:13:14;19.92;;;9.45;;
63050;SDS011;49136;47.416;19.402;2022-10-26T06:23:54;19.83;;;8.93;;
63050;SDS011;49136;47.416;19.402;2022-10-26T06:26:52;24.17;;;10.70;;
63050;SDS011;49136;47.416;19.402;2022-10-26T06:29:39;21.25;;;10.02;;
63050;SDS011;49136;47.416;19.402;2022-10-26T06:32:14;21.42;;;9.20;;
63050;SDS011;49136;47.416;19.402;2022-10-26T06:34:44;27.10;;;10.35;;
63050;SDS011;49136;47.416;19.402;2022-10-26T06:37:12;19.25;;;9.05;;
63050;SDS011;49136;47.416;19.402;2022-10-26T06:39:38;19.30;;;11.52;;
63050;SDS011;49136;47.416;19.402;2022-10-26T06:42:09;31.45;;;10.63;;
63050;SDS011;49136;47.416;19.402;2022-10-26T06:44:35;20.85;;;10.45;;
63050;SDS011;49136;47.416;19.402;2022-10-26T06:47:04;17.85;;;10.20;;
63050;SDS011;49136;47.416;19.402;2022-10-26T06:52:16;21.23;;;11.30;;
63050;SDS011;49136;47.416;19.402;2022-10-26T06:57:12;25.48;;;11.35;;
63050;SDS011;49136;47.416;19.402;2022-10-26T06:59:48;37.45;;;12.45;;
63050;SDS011;49136;47.416;19.402;2022-10-26T07:02:16;20.17;;;11.07;;
63050;SDS011;49136;47.416;19.402;2022-10-26T07:04:42;25.85;;;12.50;;
63050;SDS011;49136;47.416;19.402;2022-10-26T07:07:09;24.33;;;12.25;;
63050;SDS011;49136;47.416;19.402;2022-10-26T07:09:36;23.90;;;10.75;;
63050;SDS011;49136;47.416;19.402;2022-10-26T07:12:01;25.52;;;12.35;;
63050;SDS011;49136;47.416;19.402;2022-10-26T07:14:27;24.95;;;11.02;;
63050;SDS011;49136;47.416;19.402;2022-10-26T07:16:52;25.45;;;12.80;;
63050;SDS011;49136;47.416;19.402;2022-10-26T07:19:18;28.05;;;13.40;;
63050;SDS011;49136;47.416;19.402;2022-10-26T07:21:44;27.90;;;11.00;;
63050;SDS011;49136;47.416;19.402;2022-10-26T07:24:09;22.92;;;10.55;;
63050;SDS011;49136;47.416;19.402;2022-10-26T07:26:34;28.52;;;11.70;;
63050;SDS011;49136;47.416;19.402;2022-10-26T07:29:00;31.70;;;11.50;;
63050;SDS011;49136;47.416;19.402;2022-10-26T07:31:25;21.90;;;9.50;;
63050;SDS011;49136;47.416;19.402;2022-10-26T07:33:54;23.95;;;11.65;;
63050;SDS011;49136;47.416;19.402;2022-10-26T07:36:19;22.10;;;11.07;;
63050;SDS011;49136;47.416;19.402;2022-10-26T07:38:45;22.83;;;10.50;;
63050;SDS011;49136;47.416;19.402;2022-10-26T07:41:10;20.67;;;10.32;;
63050;SDS011;49136;47.416;19.402;2022-10-26T07:43:35;19.80;;;10.48;;
63050;SDS011;49136;47.416;19.402;2022-10-26T07:46:01;22.20;;;11.25;;
63050;SDS011;49136;47.416;19.402;2022-10-26T07:48:26;35.35;;;14.93;;
63050;SDS011;49136;47.416;19.402;2022-10-26T07:50:52;30.20;;;15.45;;
63050;SDS011;49136;47.416;19.402;2022-10-26T07:53:17;37.58;;;16.17;;
63050;SDS011;49136;47.416;19.402;2022-10-26T07:55:42;36.00;;;17.85;;
63050;SDS011;49136;47.416;19.402;2022-10-26T07:58:08;33.47;;;15.75;;
63050;SDS011;49136;47.416;19.402;2022-10-26T08:00:33;36.90;;;13.95;;
63050;SDS011;49136;47.416;19.402;2022-10-26T08:02:58;29.90;;;14.18;;
63050;SDS011;49136;47.416;19.402;2022-10-26T08:05:24;21.75;;;12.43;;
63050;SDS011;49136;47.416;19.402;2022-10-26T08:07:49;23.23;;;12.55;;
63050;SDS011;49136;47.416;19.402;2022-10-26T08:10:15;22.30;;;10.52;;
63050;SDS011;49136;47.416;19.402;2022-10-26T08:12:41;24.80;;;9.70;;
63050;SDS011;49136;47.416;19.402;2022-10-26T08:15:07;13.48;;;7.30;;
63050;SDS011;49136;47.416;19.402;2022-10-26T08:17:33;16.00;;;8.57;;
63050;SDS011;49136;47.416;19.402;2022-10-26T08:19:59;13.50;;;7.45;;
63050;SDS011;49136;47.416;19.402;2022-10-26T08:22:24;14.07;;;7.97;;
63050;SDS011;49136;47.416;19.402;2022-10-26T08:24:50;15.18;;;8.68;;
63050;SDS011;49136;47.416;19.402;2022-10-26T08:27:15;15.95;;;7.65;;
63050;SDS011;49136;47.416;19.402;2022-10-26T08:29:41;15.60;;;8.70;;
63050;SDS011;49136;47.416;19.402;2022-10-26T08:32:07;18.65;;;8.85;;
63050;SDS011;49136;47.416;19.402;2022-10-26T08:34:33;16.52;;;8.45;;
63050;SDS011;49136;47.416;19.402;2022-10-26T08:36:59;17.00;;;9.45;;
63050;SDS011;49136;47.416;19.402;2022-10-26T08:39:24;16.90;;;9.27;;
63050;SDS011;49136;47.416;19.402;2022-10-26T08:41:54;16.40;;;8.43;;
63050;SDS011;49136;47.416;19.402;2022-10-26T08:44:27;14.25;;;7.40;;
63050;SDS011;49136;47.416;19.402;2022-10-26T08:47:18;12.63;;;7.25;;
63050;SDS011;49136;47.416;19.402;2022-10-26T08:50:02;17.58;;;8.20;;
63050;SDS011;49136;47.416;19.402;2022-10-26T08:52:37;16.90;;;8.23;;
63050;SDS011;49136;47.416;19.402;2022-10-26T08:55:13;11.65;;;6.28;;
63050;SDS011;49136;47.416;19.402;2022-10-26T08:57:42;13.27;;;6.05;;
63050;SDS011;49136;47.416;19.402;2022-10-26T09:00:14;11.63;;;5.93;;
63050;SDS011;49136;47.416;19.402;2022-10-26T09:02:48;9.77;;;5.13;;
63050;SDS011;49136;47.416;19.402;2022-10-26T09:05:18;8.85;;;5.07;;
63050;SDS011;49136;47.416;19.402;2022-10-26T09:10:39;12.35;;;4.60;;
63050;SDS011;49136;47.416;19.402;2022-10-26T09:13:48;10.65;;;4.43;;
63050;SDS011;49136;47.416;19.402;2022-10-26T09:21:34;8.05;;;4.57;;
63050;SDS011;49136;47.416;19.402;2022-10-26T09:24:12;10.20;;;4.60;;
63050;SDS011;49136;47.416;19.402;2022-10-26T09:29:04;8.57;;;4.80;;
63050;SDS011;49136;47.416;19.402;2022-10-26T09:31:38;6.88;;;4.15;;
63050;SDS011;49136;47.416;19.402;2022-10-26T09:34:05;7.55;;;4.05;;
63050;SDS011;49136;47.416;19.402;2022-10-26T09:36:35;8.93;;;4.70;;
63050;SDS011;49136;47.416;19.402;2022-10-26T09:39:16;8.48;;;4.78;;
63050;SDS011;49136;47.416;19.402;2022-10-26T09:42:49;8.05;;;4.30;;
63050;SDS011;49136;47.416;19.402;2022-10-26T09:45:11;10.80;;;4.10;;
63050;SDS011;49136;47.416;19.402;2022-10-26T09:47:44;6.18;;;4.10;;
63050;SDS011;49136;47.416;19.402;2022-10-26T09:52:41;7.45;;;3.75;;
63050;SDS011;49136;47.416;19.402;2022-10-26T09:55:10;6.60;;;3.90;;
63050;SDS011;49136;47.416;19.402;2022-10-26T09:57:38;6.78;;;4.55;;
63050;SDS011;49136;47.416;19.402;2022-10-26T10:00:05;8.77;;;4.30;;
63050;SDS011;49136;47.416;19.402;2022-10-26T10:02:37;6.25;;;3.28;;
63050;SDS011;49136;47.416;19.402;2022-10-26T10:05:26;9.30;;;4.47;;
63050;SDS011;49136;47.416;19.402;2022-10-26T10:08:08;8.23;;;3.92;;
63050;SDS011;49136;47.416;19.402;2022-10-26T10:11:01;10.75;;;5.40;;
63050;SDS011;49136;47.416;19.402;2022-10-26T10:13:31;10.10;;;5.38;;
63050;SDS011;49136;47.416;19.402;2022-10-26T10:16:01;8.05;;;4.95;;
63050;SDS011;49136;47.416;19.402;2022-10-26T10:20:55;8.35;;;3.80;;
63050;SDS011;49136;47.416;19.402;2022-10-26T10:23:26;10.45;;;5.07;;
63050;SDS011;49136;47.416;19.402;2022-10-26T10:26:01;7.68;;;4.60;;
63050;SDS011;49136;47.416;19.402;2022-10-26T10:28:31;7.60;;;4.15;;
63050;SDS011;49136;47.416;19.402;2022-10-26T10:30:58;9.43;;;5.22;;
63050;SDS011;49136;47.416;19.402;2022-10-26T10:36:05;9.10;;;4.75;;
63050;SDS011;49136;47.416;19.402;2022-10-26T10:38:37;10.20;;;5.95;;
63050;SDS011;49136;47.416;19.402;2022-10-26T10:43:30;11.23;;;4.78;;
63050;SDS011;49136;47.416;19.402;2022-10-26T10:45:56;8.27;;;5.10;;
63050;SDS011;49136;47.416;19.402;2022-10-26T10:48:26;8.82;;;4.97;;
63050;SDS011;49136;47.416;19.402;2022-10-26T10:51:00;7.13;;;4.32;;
63050;SDS011;49136;47.416;19.402;2022-10-26T10:56:40;7.25;;;4.13;;
63050;SDS011;49136;47.416;19.402;2022-10-26T11:01:15;7.95;;;4.65;;
63050;SDS011;49136;47.416;19.402;2022-10-26T11:03:53;9.40;;;4.60;;
63050;SDS011;49136;47.416;19.402;2022-10-26T11:06:33;9.18;;;4.95;;
63050;SDS011;49136;47.416;19.402;2022-10-26T11:09:03;11.82;;;4.25;;
63050;SDS011;49136;47.416;19.402;2022-10-26T11:16:45;10.23;;;5.15;;
63050;SDS011;49136;47.416;19.402;2022-10-26T11:19:23;9.57;;;4.53;;
63050;SDS011;49136;47.416;19.402;2022-10-26T11:21:55;10.88;;;4.47;;
63050;SDS011;49136;47.416;19.402;2022-10-26T11:24:35;7.47;;;4.05;;
63050;SDS011;49136;47.416;19.402;2022-10-26T11:27:17;7.13;;;3.63;;
63050;SDS011;49136;47.416;19.402;2022-10-26T11:30:51;6.68;;;3.28;;
63050;SDS011;49136;47.416;19.402;2022-10-26T11:33:29;5.53;;;2.80;;
63050;SDS011;49136;47.416;19.402;2022-10-26T11:41:11;11.88;;;3.78;;
63050;SDS011;49136;47.416;19.402;2022-10-26T11:44:02;6.32;;;3.40;;
63050;SDS011;49136;47.416;19.402;2022-10-26T11:46:37;9.77;;;3.60;;
63050;SDS011;49136;47.416;19.402;2022-10-26T11:49:14;7.03;;;3.63;;
63050;SDS011;49136;47.416;19.402;2022-10-26T11:54:39;7.75;;;4.32;;
63050;SDS011;49136;47.416;19.402;2022-10-26T11:57:09;8.90;;;4.05;;
63050;SDS011;49136;47.416;19.402;2022-10-26T11:59:38;5.53;;;3.90;;
63050;SDS011;49136;47.416;19.402;2022-10-26T12:02:42;7.97;;;3.65;;
63050;SDS011;49136;47.416;19.402;2022-10-26T12:07:39;6.43;;;3.63;;
63050;SDS011;49136;47.416;19.402;2022-10-26T12:10:12;7.78;;;3.72;;
63050;SDS011;49136;47.416;19.402;2022-10-26T12:13:13;6.85;;;3.70;;
63050;SDS011;49136;47.416;19.402;2022-10-26T12:15:57;8.63;;;4.18;;
63050;SDS011;49136;47.416;19.402;2022-10-26T12:18:36;11.85;;;4.32;;
63050;SDS011;49136;47.416;19.402;2022-10-26T12:21:07;9.70;;;4.50;;
63050;SDS011;49136;47.416;19.402;2022-10-26T12:23:35;6.60;;;3.85;;
63050;SDS011;49136;47.416;19.402;2022-10-26T12:34:04;10.18;;;4.07;;
63050;SDS011;49136;47.416;19.402;2022-10-26T12:39:26;7.47;;;3.95;;
63050;SDS011;49136;47.416;19.402;2022-10-26T12:42:17;8.57;;;3.63;;
63050;SDS011;49136;47.416;19.402;2022-10-26T13:00:24;8.68;;;4.07;;
63050;SDS011;49136;47.416;19.402;2022-10-26T13:08:40;9.65;;;4.47;;
63050;SDS011;49136;47.416;19.402;2022-10-26T13:11:15;7.35;;;4.40;;
63050;SDS011;49136;47.416;19.402;2022-10-26T13:13:44;8.27;;;4.05;;
63050;SDS011;49136;47.416;19.402;2022-10-26T13:16:17;7.18;;;3.97;;
63050;SDS011;49136;47.416;19.402;2022-10-26T13:18:43;9.95;;;3.95;;
63050;SDS011;49136;47.416;19.402;2022-10-26T13:21:13;9.73;;;5.05;;
63050;SDS011;49136;47.416;19.402;2022-10-26T13:23:44;9.40;;;4.43;;
63050;SDS011;49136;47.416;19.402;2022-10-26T13:26:32;7.28;;;3.63;;
63050;SDS011;49136;47.416;19.402;2022-10-26T13:29:29;9.27;;;3.97;;
63050;SDS011;49136;47.416;19.402;2022-10-26T13:31:55;7.15;;;3.70;;
63050;SDS011;49136;47.416;19.402;2022-10-26T13:34:23;8.07;;;3.95;;
63050;SDS011;49136;47.416;19.402;2022-10-26T13:36:58;9.13;;;4.07;;
63050;SDS011;49136;47.416;19.402;2022-10-26T13:39:45;6.30;;;3.67;;
63050;SDS011;49136;47.416;19.402;2022-10-26T13:42:14;15.20;;;4.47;;
63050;SDS011;49136;47.416;19.402;2022-10-26T13:44:45;9.02;;;4.63;;
63050;SDS011;49136;47.416;19.402;2022-10-26T13:47:21;18.08;;;4.63;;
63050;SDS011;49136;47.416;19.402;2022-10-26T13:50:10;8.50;;;3.90;;
63050;SDS011;49136;47.416;19.402;2022-10-26T13:52:43;7.53;;;3.60;;
63050;SDS011;49136;47.416;19.402;2022-10-26T13:55:17;9.80;;;4.07;;
63050;SDS011;49136;47.416;19.402;2022-10-26T13:58:17;6.97;;;4.22;;
63050;SDS011;49136;47.416;19.402;2022-10-26T14:03:29;10.02;;;4.53;;
63050;SDS011;49136;47.416;19.402;2022-10-26T14:05:54;12.60;;;4.57;;
63050;SDS011;49136;47.416;19.402;2022-10-26T14:08:20;10.13;;;4.30;;
63050;SDS011;49136;47.416;19.402;2022-10-26T14:10:47;8.40;;;3.80;;
63050;SDS011;49136;47.416;19.402;2022-10-26T14:15:45;13.80;;;3.70;;
63050;SDS011;49136;47.416;19.402;2022-10-26T14:18:29;13.27;;;3.30;;
63050;SDS011;49136;47.416;19.402;2022-10-26T14:20:59;16.10;;;4.05;;
63050;SDS011;49136;47.416;19.402;2022-10-26T14:23:43;11.20;;;3.78;;
63050;SDS011;49136;47.416;19.402;2022-10-26T14:26:23;7.63;;;3.95;;
63050;SDS011;49136;47.416;19.402;2022-10-26T14:28:57;10.35;;;4.40;;
63050;SDS011;49136;47.416;19.402;2022-10-26T14:31:25;12.68;;;4.60;;
63050;SDS011;49136;47.416;19.402;2022-10-26T14:33:52;7.22;;;3.78;;
63050;SDS011;49136;47.416;19.402;2022-10-26T14:36:19;7.72;;;4.20;;
63050;SDS011;49136;47.416;19.402;2022-10-26T14:38:50;12.60;;;5.37;;
63050;SDS011;49136;47.416;19.402;2022-10-26T14:41:21;11.48;;;4.55;;
63050;SDS011;49136;47.416;19.402;2022-10-26T14:43:47;9.35;;;4.07;;
63050;SDS011;49136;47.416;19.402;2022-10-26T14:46:14;9.73;;;5.32;;
63050;SDS011;49136;47.416;19.402;2022-10-26T14:48:41;13.13;;;4.78;;
63050;SDS011;49136;47.416;19.402;2022-10-26T14:51:19;10.43;;;5.40;;
63050;SDS011;49136;47.416;19.402;2022-10-26T14:53:53;9.65;;;4.88;;
63050;SDS011;49136;47.416;19.402;2022-10-26T14:59:21;22.10;;;7.68;;
63050;SDS011;49136;47.416;19.402;2022-10-26T15:04:40;38.28;;;10.93;;
63050;SDS011;49136;47.416;19.402;2022-10-26T15:09:48;24.25;;;9.35;;
63050;SDS011;49136;47.416;19.402;2022-10-26T15:14:49;27.25;;;8.35;;
63050;SDS011;49136;47.416;19.402;2022-10-26T15:17:19;17.50;;;8.07;;
63050;SDS011;49136;47.416;19.402;2022-10-26T15:19:48;16.88;;;7.30;;
63050;SDS011;49136;47.416;19.402;2022-10-26T15:22:25;19.92;;;7.78;;
63050;SDS011;49136;47.416;19.402;2022-10-26T15:24:52;19.20;;;7.55;;
63050;SDS011;49136;47.416;19.402;2022-10-26T15:27:20;16.90;;;7.70;;
63050;SDS011;49136;47.416;19.402;2022-10-26T15:29:48;21.80;;;8.48;;
63050;SDS011;49136;47.416;19.402;2022-10-26T15:34:48;23.35;;;8.85;;
63050;SDS011;49136;47.416;19.402;2022-10-26T15:37:31;21.90;;;8.63;;
63050;SDS011;49136;47.416;19.402;2022-10-26T15:39:58;26.08;;;8.52;;
63050;SDS011;49136;47.416;19.402;2022-10-26T15:42:24;23.42;;;8.73;;
63050;SDS011;49136;47.416;19.402;2022-10-26T15:44:50;25.20;;;8.23;;
63050;SDS011;49136;47.416;19.402;2022-10-26T15:47:16;22.75;;;9.60;;
63050;SDS011;49136;47.416;19.402;2022-10-26T15:49:46;28.05;;;12.43;;
63050;SDS011;49136;47.416;19.402;2022-10-26T15:52:11;35.28;;;11.30;;
63050;SDS011;49136;47.416;19.402;2022-10-26T15:54:37;27.73;;;12.07;;
63050;SDS011;49136;47.416;19.402;2022-10-26T15:57:03;24.88;;;10.23;;
63050;SDS011;49136;47.416;19.402;2022-10-26T15:59:28;23.50;;;11.32;;
63050;SDS011;49136;47.416;19.402;2022-10-26T16:01:54;32.28;;;11.05;;
63050;SDS011;49136;47.416;19.402;2022-10-26T16:04:19;26.40;;;10.48;;
63050;SDS011;49136;47.416;19.402;2022-10-26T16:06:44;20.60;;;10.82;;
63050;SDS011;49136;47.416;19.402;2022-10-26T16:09:14;30.85;;;10.15;;
63050;SDS011;49136;47.416;19.402;2022-10-26T16:11:42;37.35;;;11.38;;
63050;SDS011;49136;47.416;19.402;2022-10-26T16:14:11;24.98;;;10.80;;
63050;SDS011;49136;47.416;19.402;2022-10-26T16:16:36;31.90;;;10.93;;
63050;SDS011;49136;47.416;19.402;2022-10-26T16:19:02;23.00;;;10.43;;
63050;SDS011;49136;47.416;19.402;2022-10-26T16:21:28;25.15;;;12.27;;
63050;SDS011;49136;47.416;19.402;2022-10-26T16:23:54;30.58;;;12.25;;
63050;SDS011;49136;47.416;19.402;2022-10-26T16:26:21;30.88;;;12.20;;
63050;SDS011;49136;47.416;19.402;2022-10-26T16:28:47;44.25;;;12.32;;
63050;SDS011;49136;47.416;19.402;2022-10-26T16:31:14;33.78;;;12.95;;
63050;SDS011;49136;47.416;19.402;2022-10-26T16:33:41;35.17;;;12.98;;
63050;SDS011;49136;47.416;19.402;2022-10-26T16:36:07;34.08;;;13.85;;
63050;SDS011;49136;47.416;19.402;2022-10-26T16:38:34;38.58;;;14.18;;
63050;SDS011;49136;47.416;19.402;2022-10-26T16:41:03;26.70;;;13.77;;
63050;SDS011;49136;47.416;19.402;2022-10-26T16:43:30;33.20;;;13.10;;
63050;SDS011;49136;47.416;19.402;2022-10-26T16:45:56;33.00;;;13.23;;
63050;SDS011;49136;47.416;19.402;2022-10-26T16:48:22;31.35;;;14.25;;
63050;SDS011;49136;47.416;19.402;2022-10-26T16:50:47;29.48;;;14.77;;
63050;SDS011;49136;47.416;19.402;2022-10-26T16:53:13;29.08;;;12.52;;
63050;SDS011;49136;47.416;19.402;2022-10-26T16:55:38;31.10;;;13.65;;
63050;SDS011;49136;47.416;19.402;2022-10-26T16:58:03;24.17;;;11.45;;
63050;SDS011;49136;47.416;19.402;2022-10-26T17:00:29;31.50;;;12.30;;
63050;SDS011;49136;47.416;19.402;2022-10-26T17:02:55;33.15;;;13.57;;
63050;SDS011;49136;47.416;19.402;2022-10-26T17:05:20;30.33;;;14.65;;
63050;SDS011;49136;47.416;19.402;2022-10-26T17:07:46;33.72;;;14.50;;
63050;SDS011;49136;47.416;19.402;2022-10-26T17:10:11;41.08;;;15.68;;